Time;durP1;ratioP1;P1;durP2;ratioP2;P2;SDS_P1;SDS_P2;PMS_P1;PMS_P2;Temp;Humidity;BMP_temperature;BMP_pressure;BME280_temperature;BME280_humidity;BME280_pressure;Samples;Min_cycle;Max_cycle;Signal;HPM_P1;HPM_P2
2023/01/27 00:00:50;;;;;;;25.37;14.97;;;;;;;4.02;69.28;100558.81;5024486;27;97203;-79
2023/01/27 00:03:15;;;;;;;27.47;14.67;;;;;;;4.02;69.52;100564.88;5004108;28;97045;-80
2023/01/27 00:05:41;;;;;;;25.87;13.90;;;;;;;3.87;69.33;100538.97;4995988;27;101386;-82
2023/01/27 00:08:06;;;;;;;24.03;14.87;;;;;;;3.98;69.29;100555.34;5013546;27;101368;-78
2023/01/27 00:10:32;;;;;;;25.00;14.70;;;;;;;3.73;69.48;100509.56;5032064;27;96728;-80
2023/01/27 00:15:41;;;;;;;28.57;15.90;;;;;;;3.88;69.38;100532.88;5030109;27;101725;-85
2023/01/27 00:18:07;;;;;;;29.73;16.53;;;;;;;3.98;69.51;100550.16;4994141;27;101609;-78
2023/01/27 00:26:12;;;;;;;31.60;17.57;;;;;;;3.98;69.66;100549.28;5003507;28;97886;-78
2023/01/27 00:28:40;;;;;;;33.70;18.03;;;;;;;3.98;69.58;100547.56;4989825;27;98434;-78
2023/01/27 00:33:54;;;;;;;34.27;18.27;;;;;;;4.02;69.97;100548.44;4995172;27;96812;-78
2023/01/27 00:36:21;;;;;;;33.13;19.27;;;;;;;3.81;69.84;100521.66;5002286;28;101492;-79
2023/01/27 00:38:47;;;;;;;32.97;18.07;;;;;;;4.04;69.74;100557.06;4993026;28;101197;-78
2023/01/27 00:41:20;;;;;;;34.17;18.53;;;;;;;4.01;69.84;100554.47;4999947;28;96795;-78
2023/01/27 00:43:51;;;;;;;37.47;19.53;;;;;;;4.01;69.97;100565.72;4996445;28;96922;-80
2023/01/27 00:46:17;;;;;;;38.20;19.52;;;;;;;4.02;70.17;100571.81;4991304;28;100971;-80
2023/01/27 00:48:43;;;;;;;35.67;18.73;;;;;;;4.05;69.68;100574.41;4995615;28;101683;-83
2023/01/27 00:51:09;;;;;;;42.03;20.53;;;;;;;3.90;69.67;100553.63;4980447;28;96869;-79
2023/01/27 00:53:35;;;;;;;44.17;23.63;;;;;;;4.02;69.97;100574.41;4977291;27;97282;-81
2023/01/27 00:56:00;;;;;;;41.33;23.97;;;;;;;4.02;69.54;100572.66;4990990;27;101351;-79
2023/01/27 00:58:27;;;;;;;55.93;31.57;;;;;;;3.99;69.93;100572.69;4990396;27;98025;-80
2023/01/27 01:00:59;;;;;;;60.63;35.83;;;;;;;4.01;69.37;100572.66;4993893;28;97237;-78
2023/01/27 01:03:25;;;;;;;66.47;38.03;;;;;;;3.99;69.26;100580.47;4987285;28;96842;-79
2023/01/27 01:05:51;;;;;;;61.90;36.83;;;;;;;3.93;69.54;100574.44;5008732;28;101710;-79
2023/01/27 01:08:17;;;;;;;66.87;39.43;;;;;;;3.93;69.48;100584.81;4993876;27;101463;-79
2023/01/27 01:10:43;;;;;;;65.73;37.10;;;;;;;3.92;69.46;100588.28;4989278;28;97195;-84
2023/01/27 01:13:10;;;;;;;68.03;38.80;;;;;;;3.89;69.69;100577.91;4974312;27;97222;-78
2023/01/27 01:15:39;;;;;;;69.90;38.43;;;;;;;3.88;69.50;100582.22;4997603;28;97572;-78
2023/01/27 01:18:06;;;;;;;68.60;37.57;;;;;;;3.92;69.26;100585.69;4994778;27;101188;-78
2023/01/27 01:20:38;;;;;;;62.90;36.27;;;;;;;3.79;69.35;100564.06;4973459;28;97469;-78
2023/01/27 01:23:05;;;;;;;66.93;36.45;;;;;;;3.86;69.61;100574.44;4962349;27;97128;-78
2023/01/27 01:25:30;;;;;;;61.40;34.83;;;;;;;3.79;69.69;100564.94;4981942;28;101697;-81
2023/01/27 01:27:56;;;;;;;62.10;34.40;;;;;;;3.82;69.22;100571.88;4979843;27;101580;-80
2023/01/27 01:30:25;;;;;;;61.37;35.53;;;;;;;3.86;69.45;100576.16;5007268;28;97032;-78
2023/01/27 01:32:52;;;;;;;64.87;35.97;;;;;;;3.85;69.67;100566.66;5003315;27;96926;-80
2023/01/27 01:35:18;;;;;;;57.03;33.43;;;;;;;3.82;69.45;100567.53;5008799;28;101517;-79
2023/01/27 01:37:44;;;;;;;62.13;33.80;;;;;;;3.86;69.61;100573.56;5020761;28;98452;-84
2023/01/27 01:40:13;;;;;;;58.87;32.97;;;;;;;3.73;69.60;100557.16;5002789;28;97818;-79
2023/01/27 01:43:05;;;;;;;54.60;33.13;;;;;;;3.82;69.42;100566.66;4996802;28;97083;-79
2023/01/27 01:45:31;;;;;;;52.80;30.27;;;;;;;3.84;69.32;100567.53;5017911;27;101759;-80
2023/01/27 01:48:01;;;;;;;52.50;30.57;;;;;;;3.84;69.70;100564.94;4994696;28;101316;-79
2023/01/27 01:50:27;;;;;;;57.07;31.70;;;;;;;3.82;69.34;100569.25;5003573;28;96820;-78
2023/01/27 01:52:53;;;;;;;56.37;32.73;;;;;;;3.78;69.61;100564.94;4996711;28;96912;-78
2023/01/27 01:55:19;;;;;;;52.63;30.17;;;;;;;3.79;69.44;100562.34;4981176;28;101193;-78
2023/01/27 01:57:46;;;;;;;55.60;30.83;;;;;;;3.79;69.54;100557.16;4981428;28;101515;-82
2023/01/27 02:00:12;;;;;;;49.70;30.60;;;;;;;3.79;69.74;100570.13;4981730;28;96918;-79
2023/01/27 02:02:41;;;;;;;57.20;32.00;;;;;;;3.71;69.72;100556.28;5014701;28;97480;-78
2023/01/27 02:05:16;;;;;;;57.37;31.77;;;;;;;3.73;69.52;100564.09;4974595;28;100355;-78
2023/01/27 02:07:56;;;;;;;61.40;33.77;;;;;;;3.73;69.60;100557.16;4998295;28;101406;-78
2023/01/27 02:10:23;;;;;;;59.50;32.27;;;;;;;3.81;69.69;100576.19;4973821;28;96905;-79
2023/01/27 02:12:48;;;;;;;57.73;32.60;;;;;;;3.83;69.52;100573.56;4985563;28;97156;-78
2023/01/27 02:15:14;;;;;;;67.13;33.20;;;;;;;3.77;69.92;100569.25;5004260;28;101870;-80
2023/01/27 02:17:40;;;;;;;60.33;31.93;;;;;;;3.83;69.53;100570.97;4999151;28;97454;-78
2023/01/27 02:20:08;;;;;;;62.30;33.00;;;;;;;3.81;69.48;100576.19;4981584;28;97701;-81
2023/01/27 02:22:51;;;;;;;66.03;33.53;;;;;;;3.81;69.53;100568.41;5007890;27;97811;-79
2023/01/27 02:25:26;;;;;;;63.57;33.53;;;;;;;3.68;69.68;100558.91;5016838;27;99273;-79
2023/01/27 02:27:51;;;;;;;69.20;36.00;;;;;;;3.81;69.50;100573.59;5004412;27;101473;-81
2023/01/27 02:30:18;;;;;;;67.03;34.83;;;;;;;3.79;69.89;100575.31;5018139;27;97106;-79
2023/01/27 02:32:43;;;;;;;68.40;34.20;;;;;;;3.82;69.89;100577.06;5014629;27;99350;-80
2023/01/27 02:35:14;;;;;;;70.20;35.07;;;;;;;3.79;69.58;100569.28;5019435;28;102495;-78
2023/01/27 02:37:40;;;;;;;65.97;34.23;;;;;;;3.80;69.48;100579.63;5030826;27;97982;-78
2023/01/27 02:40:06;;;;;;;65.10;34.30;;;;;;;3.79;69.51;100574.47;5023326;27;97129;-78
2023/01/27 02:42:32;;;;;;;72.80;35.23;;;;;;;3.79;69.82;100571.88;5024238;27;96939;-81
2023/01/27 02:44:57;;;;;;;62.73;33.43;;;;;;;3.80;69.92;100576.19;5027205;27;101275;-78
2023/01/27 02:47:23;;;;;;;75.57;37.13;;;;;;;3.78;69.69;100573.59;5016805;27;101371;-79
2023/01/27 02:49:49;;;;;;;75.43;36.33;;;;;;;3.82;70.05;100574.47;5012576;28;97003;-80
2023/01/27 02:52:15;;;;;;;66.43;35.20;;;;;;;3.83;69.73;100582.22;4985000;27;96834;-80
2023/01/27 02:54:41;;;;;;;67.43;33.67;;;;;;;3.84;69.76;100575.31;5001584;27;102016;-79
2023/01/27 02:57:06;;;;;;;70.30;35.90;;;;;;;3.82;69.84;100570.13;5014943;27;98252;-80
2023/01/27 02:59:38;;;;;;;;;;;;;;;3.80;69.92;100578.78;4985994;28;97150;-78
2023/01/27 03:02:04;;;;;;;67.87;35.23;;;;;;;3.83;69.82;100576.19;5020178;27;97293;-79
2023/01/27 03:04:29;;;;;;;70.90;34.60;;;;;;;3.78;69.87;100565.81;5019702;27;98438;-78
2023/01/27 03:06:56;;;;;;;69.77;33.90;;;;;;;3.84;69.73;100571.00;5010482;27;98422;-80
2023/01/27 03:09:23;;;;;;;69.77;34.83;;;;;;;3.70;69.75;100557.19;5027762;27;97017;-79
2023/01/27 03:20:01;;;;;;;72.40;34.90;;;;;;;3.86;70.06;100578.75;5022857;27;97092;-79
2023/01/27 03:22:28;;;;;;;70.70;35.33;;;;;;;3.83;70.01;100571.84;5004400;27;96916;-78
2023/01/27 03:24:53;;;;;;;73.10;34.67;;;;;;;3.84;69.79;100559.75;5030942;27;101387;-79
2023/01/27 03:27:20;;;;;;;70.90;35.63;;;;;;;3.84;70.07;100575.31;5009783;28;101894;-79
2023/01/27 03:30:07;;;;;;;71.47;34.67;;;;;;;3.74;70.19;100558.88;5007451;27;98866;-78
2023/01/27 03:32:33;;;;;;;57.10;29.40;;;;;;;3.86;70.09;100571.81;5005476;27;96966;-79
2023/01/27 03:35:22;;;;;;;63.07;30.10;;;;;;;3.87;70.59;100570.13;5032736;27;99156;-79
2023/01/27 03:46:21;;;;;;;23.57;13.47;;;;;;;3.86;70.08;100570.97;5028104;27;99742;-79
2023/01/27 03:48:54;;;;;;;24.07;12.20;;;;;;;3.92;70.06;100572.69;5020768;27;98340;-78
2023/01/27 03:51:22;;;;;;;24.13;13.57;;;;;;;3.86;70.28;100560.59;5020003;27;96933;-78
2023/01/27 03:53:48;;;;;;;22.10;12.00;;;;;;;3.90;70.00;100564.03;4997889;27;97334;-82
2023/01/27 03:56:15;;;;;;;23.80;13.97;;;;;;;3.93;70.26;100567.50;5018102;28;98314;-81
2023/01/27 03:58:41;;;;;;;23.23;12.73;;;;;;;3.82;70.08;100564.94;5008094;27;101514;-79
2023/01/27 04:01:14;;;;;;;23.13;12.20;;;;;;;3.81;69.99;100559.72;4992709;27;96810;-79
2023/01/27 04:09:11;;;;;;;27.17;14.63;;;;;;;3.91;70.20;100574.44;5031511;27;98382;-78
2023/01/27 04:11:57;;;;;;;26.73;15.83;;;;;;;3.93;70.12;100577.91;5018663;27;97319;-79
2023/01/27 04:14:31;;;;;;;30.83;16.53;;;;;;;3.87;70.48;100562.34;5027331;27;97065;-81
2023/01/27 04:17:02;;;;;;;31.17;15.77;;;;;;;3.94;70.20;100576.16;4998226;27;101275;-80
2023/01/27 04:19:28;;;;;;;26.80;16.05;;;;;;;3.85;70.72;100564.91;5020111;28;101657;-79
2023/01/27 04:21:54;;;;;;;32.53;18.30;;;;;;;3.82;70.17;100554.53;5039370;27;97345;-78
2023/01/27 04:24:23;;;;;;;34.07;17.03;;;;;;;3.92;70.46;100581.34;4999440;28;96847;-78
2023/01/27 04:27:06;;;;;;;32.90;16.57;;;;;;;3.92;70.29;100580.47;5017206;27;97610;-83
2023/01/27 04:29:35;;;;;;;35.17;19.23;;;;;;;3.84;70.35;100572.72;5029758;27;101777;-78
2023/01/27 04:32:02;;;;;;;35.47;19.03;;;;;;;3.89;69.87;100577.91;5018593;27;97189;-78
2023/01/27 04:34:27;;;;;;;39.33;19.23;;;;;;;3.91;69.89;100586.56;5017314;27;96987;-79
2023/01/27 04:36:54;;;;;;;32.33;17.70;;;;;;;3.88;70.36;100583.97;5005787;27;100360;-79
2023/01/27 04:39:20;;;;;;;35.43;18.87;;;;;;;3.89;70.10;100581.34;5017071;27;98490;-80
2023/01/27 04:41:47;;;;;;;36.03;20.17;;;;;;;3.87;70.27;100583.09;5019632;27;97130;-79
2023/01/27 04:44:13;;;;;;;36.97;20.20;;;;;;;3.85;69.98;100584.84;5011624;27;97353;-78
2023/01/27 04:46:39;;;;;;;38.17;19.47;;;;;;;3.85;70.34;100583.09;5036225;27;99466;-79
2023/01/27 04:49:05;;;;;;;39.67;19.83;;;;;;;3.74;70.11;100561.47;5008865;27;101233;-78
2023/01/27 04:51:32;;;;;;;36.93;19.60;;;;;;;3.85;70.18;100580.50;5011248;27;97041;-81
2023/01/27 04:53:57;;;;;;;42.03;19.77;;;;;;;3.88;70.16;100587.41;5019032;27;97080;-79
2023/01/27 04:56:23;;;;;;;38.23;19.90;;;;;;;3.89;69.99;100583.09;5023399;27;98590;-79
2023/01/27 04:58:49;;;;;;;36.73;20.70;;;;;;;3.79;70.08;100567.53;5016967;27;101150;-78
2023/01/27 05:01:14;;;;;;;35.47;18.67;;;;;;;3.87;70.32;100577.91;5007892;27;96728;-79
2023/01/27 05:03:40;;;;;;;40.07;19.70;;;;;;;3.73;70.07;100562.34;5014563;27;97097;-78
2023/01/27 05:06:06;;;;;;;38.60;19.87;;;;;;;3.86;69.98;100584.81;5007789;28;97416;-78
2023/01/27 05:08:31;;;;;;;40.63;20.30;;;;;;;3.84;70.34;100586.56;5031669;27;100993;-79
2023/01/27 05:10:57;;;;;;;36.83;19.30;;;;;;;3.75;70.15;100573.63;4999412;27;97032;-78
2023/01/27 05:13:22;;;;;;;37.73;19.53;;;;;;;3.73;70.21;100575.34;4992495;27;97253;-80
2023/01/27 05:15:48;;;;;;;37.77;21.00;;;;;;;3.87;69.99;100596.09;5022718;27;101035;-80
2023/01/27 05:18:14;;;;;;;42.33;20.93;;;;;;;3.74;69.95;100578.78;5015594;27;101420;-80
2023/01/27 05:20:39;;;;;;;44.07;20.97;;;;;;;3.88;70.22;100604.75;5021002;27;97687;-78
2023/01/27 05:25:49;;;;;;;41.83;21.37;;;;;;;3.86;70.38;100607.34;5038049;27;98081;-79
2023/01/27 05:28:14;;;;;;;43.83;21.90;;;;;;;3.82;70.59;100603.88;4998446;27;101780;-80
2023/01/27 05:30:40;;;;;;;45.70;22.53;;;;;;;3.85;70.21;100616.00;5037878;27;97483;-78
2023/01/27 05:33:07;;;;;;;47.40;22.47;;;;;;;3.88;70.22;100625.53;5003736;27;97550;-78
2023/01/27 05:35:33;;;;;;;42.37;21.37;;;;;;;3.83;70.23;100615.13;5003057;28;101691;-79
2023/01/27 05:37:59;;;;;;;43.90;21.50;;;;;;;3.87;70.39;100619.47;4999366;27;101670;-80
2023/01/27 05:40:24;;;;;;;46.67;22.07;;;;;;;3.86;70.39;100617.72;5000154;27;96752;-78
2023/01/27 05:42:51;;;;;;;46.00;22.73;;;;;;;3.85;70.54;100616.88;5018309;27;97944;-78
2023/01/27 05:45:16;;;;;;;45.37;22.57;;;;;;;3.81;70.15;100617.75;5020605;27;97995;-81
2023/01/27 05:47:42;;;;;;;41.93;21.40;;;;;;;3.85;70.63;100622.06;5030776;27;101423;-78
2023/01/27 05:50:08;;;;;;;40.87;21.90;;;;;;;3.84;70.35;100624.66;5022715;27;97078;-80
2023/01/27 05:52:33;;;;;;;46.10;22.90;;;;;;;3.81;70.19;100625.53;5027760;27;97541;-80
2023/01/27 05:54:59;;;;;;;49.67;23.10;;;;;;;3.78;70.12;100619.47;5015903;28;97818;-80
2023/01/27 05:57:25;;;;;;;42.67;20.93;;;;;;;3.68;70.30;100603.03;5030323;27;98015;-79
2023/01/27 05:59:50;;;;;;;45.30;22.80;;;;;;;3.83;70.19;100628.13;5003531;27;97214;-80
2023/01/27 06:02:16;;;;;;;45.57;23.23;;;;;;;3.76;70.18;100618.63;4999483;27;98171;-79
2023/01/27 06:04:41;;;;;;;47.53;22.33;;;;;;;3.84;70.10;100643.72;5028669;27;101424;-80
2023/01/27 06:07:07;;;;;;;46.23;23.90;;;;;;;3.78;70.17;100627.25;4996500;27;101265;-79
2023/01/27 06:09:32;;;;;;;45.67;24.77;;;;;;;3.81;70.00;100632.44;4999459;28;97469;-78
2023/01/27 06:11:58;;;;;;;45.83;21.73;;;;;;;3.81;70.37;100635.94;5015629;27;98436;-79
2023/01/27 06:14:23;;;;;;;48.03;23.10;;;;;;;3.84;70.42;100640.25;4997749;27;101281;-78
2023/01/27 06:16:49;;;;;;;48.97;23.87;;;;;;;3.79;70.49;100640.25;5035310;27;98285;-77
2023/01/27 06:19:14;;;;;;;47.80;22.97;;;;;;;3.81;70.64;100641.13;5030622;27;96965;-80
2023/01/27 06:21:40;;;;;;;46.67;22.57;;;;;;;3.79;70.63;100639.38;5025249;27;96950;-79
2023/01/27 06:24:06;;;;;;;48.97;24.33;;;;;;;3.81;70.42;100637.63;5008701;27;102106;-80
2023/01/27 06:26:31;;;;;;;47.80;22.97;;;;;;;3.78;70.51;100643.72;5022181;27;97870;-80
2023/01/27 06:28:57;;;;;;;51.17;23.83;;;;;;;3.85;70.50;100649.75;5004438;28;96752;-77
2023/01/27 06:31:22;;;;;;;50.67;24.30;;;;;;;3.74;70.50;100630.72;5015517;27;97520;-77
2023/01/27 06:33:49;;;;;;;53.80;24.83;;;;;;;3.88;70.60;100654.09;5019681;27;101326;-77
2023/01/27 06:36:18;;;;;;;54.90;23.50;;;;;;;3.73;70.71;100629.00;5024703;27;101074;-76
2023/01/27 06:38:44;;;;;;;49.87;23.40;;;;;;;3.87;70.94;100653.22;5010733;27;97116;-75
2023/01/27 06:41:09;;;;;;;46.43;23.40;;;;;;;3.81;70.23;100648.03;5015413;27;97250;-75
2023/01/27 06:43:35;;;;;;;52.93;23.87;;;;;;;3.86;70.85;100656.69;5015418;27;101135;-79
2023/01/27 06:46:00;;;;;;;49.97;23.47;;;;;;;3.84;70.74;100654.09;5021919;27;101333;-78
2023/01/27 06:48:27;;;;;;;52.83;24.57;;;;;;;3.86;70.67;100664.47;5045332;27;97263;-78
2023/01/27 06:50:53;;;;;;;46.13;23.83;;;;;;;3.81;70.77;100654.09;5005844;27;96852;-78
2023/01/27 06:53:19;;;;;;;53.23;23.80;;;;;;;3.83;70.81;100659.28;5009687;27;101595;-80
2023/01/27 06:55:45;;;;;;;49.17;23.97;;;;;;;3.83;70.63;100654.94;5018465;27;97859;-78
2023/01/27 06:58:11;;;;;;;46.43;24.03;;;;;;;3.84;70.72;100656.69;5026331;27;97580;-78
2023/01/27 07:00:38;;;;;;;49.67;24.03;;;;;;;3.75;70.79;100648.03;5029163;27;97504;-78
2023/01/27 07:03:04;;;;;;;50.07;24.83;;;;;;;3.85;70.58;100662.75;5011321;27;98009;-78
2023/01/27 07:05:31;;;;;;;53.30;25.80;;;;;;;3.85;70.67;100658.41;5026900;27;97929;-79
2023/01/27 07:07:56;;;;;;;50.60;24.37;;;;;;;3.86;70.66;100661.88;5018722;27;98707;-78
2023/01/27 07:10:22;;;;;;;52.93;24.90;;;;;;;3.81;70.71;100641.13;5012080;27;96881;-79
2023/01/27 07:12:47;;;;;;;48.33;23.23;;;;;;;3.84;70.66;100659.28;5015834;27;101611;-78
2023/01/27 07:15:13;;;;;;;51.03;23.73;;;;;;;3.73;70.49;100642.84;5001446;27;98284;-77
2023/01/27 07:17:39;;;;;;;55.77;25.33;;;;;;;3.81;70.61;100656.69;5019133;27;97122;-77
2023/01/27 07:20:08;;;;;;;55.63;25.47;;;;;;;3.89;70.49;100663.59;4982793;27;96928;-78
2023/01/27 07:22:33;;;;;;;59.60;25.47;;;;;;;3.85;70.72;100660.16;5004308;27;101101;-77
2023/01/27 07:24:59;;;;;;;49.40;24.17;;;;;;;3.88;70.53;100667.06;5000483;27;100165;-78
2023/01/27 07:27:24;;;;;;;51.57;23.50;;;;;;;3.85;70.65;100670.53;5016625;27;97108;-78
2023/01/27 07:29:50;;;;;;;52.43;23.57;;;;;;;3.86;70.73;100669.66;5004986;27;97094;-78
2023/01/27 07:32:16;;;;;;;47.80;22.57;;;;;;;3.83;70.49;100661.88;5028332;27;101346;-80
2023/01/27 07:34:42;;;;;;;49.87;24.03;;;;;;;3.88;70.76;100674.88;5014097;28;101462;-77
2023/01/27 07:37:07;;;;;;;52.73;24.90;;;;;;;3.88;70.19;100672.28;4998633;27;96947;-78
2023/01/27 07:39:33;;;;;;;48.60;22.77;;;;;;;3.89;70.80;100681.78;5017219;27;98187;-77
2023/01/27 07:42:01;;;;;;;51.27;23.73;;;;;;;3.89;70.81;100686.97;5023048;27;97696;-79
2023/01/27 07:44:27;;;;;;;49.33;24.40;;;;;;;3.90;70.92;100678.31;5000625;27;101189;-78
2023/01/27 07:46:53;;;;;;;58.77;25.07;;;;;;;3.88;70.85;100686.13;5027371;27;98101;-77
2023/01/27 07:49:18;;;;;;;52.53;24.40;;;;;;;3.84;70.68;100684.41;5021324;27;97288;-77
2023/01/27 07:51:44;;;;;;;50.37;23.67;;;;;;;3.88;70.69;100680.94;5028574;27;101269;-78
2023/01/27 07:54:10;;;;;;;51.33;22.93;;;;;;;3.86;70.63;100683.50;5012496;27;97847;-77
2023/01/27 07:56:36;;;;;;;55.50;23.93;;;;;;;3.78;70.77;100666.19;5026381;27;96801;-77
2023/01/27 07:59:02;;;;;;;54.07;23.57;;;;;;;3.88;70.56;100675.72;5013317;27;97102;-75
2023/01/27 08:01:27;;;;;;;48.40;22.93;;;;;;;3.88;70.54;100677.47;5042095;27;98226;-77
2023/01/27 08:03:53;;;;;;;51.37;23.90;;;;;;;3.91;70.65;100686.13;5005820;27;101233;-76
2023/01/27 08:06:19;;;;;;;52.47;22.43;;;;;;;3.93;70.57;100683.53;5002362;27;97193;-76
2023/01/27 08:08:44;;;;;;;50.90;23.07;;;;;;;3.89;70.71;100679.19;5005793;27;97319;-77
2023/01/27 08:11:12;;;;;;;53.80;24.27;;;;;;;3.90;70.60;100679.19;4999913;27;101176;-79
2023/01/27 08:13:37;;;;;;;49.87;23.57;;;;;;;3.83;70.80;100669.66;5013288;27;97912;-80
2023/01/27 08:16:04;;;;;;;55.20;24.03;;;;;;;3.87;70.31;100671.41;5000856;27;96947;-81
2023/01/27 08:18:32;;;;;;;53.73;23.20;;;;;;;3.83;70.71;100659.28;5000031;27;96921;-81
2023/01/27 08:21:03;;;;;;;49.47;23.57;;;;;;;3.85;70.39;100665.34;5020524;27;97639;-84
2023/01/27 08:23:29;;;;;;;53.13;22.63;;;;;;;3.85;70.49;100670.53;5029551;27;101478;-82
2023/01/27 08:25:59;;;;;;;53.13;23.63;;;;;;;3.78;70.54;100663.59;5037758;27;97142;-85
2023/01/27 08:28:26;;;;;;;51.83;23.30;;;;;;;3.94;70.43;100687.84;5018191;27;96861;-82
2023/01/27 08:30:52;;;;;;;51.37;22.37;;;;;;;3.95;70.66;100695.63;5029345;27;101918;-85
2023/01/27 08:33:22;;;;;;;50.30;22.87;;;;;;;3.97;70.41;100687.84;5002004;27;101194;-85
2023/01/27 08:35:49;;;;;;;45.60;21.47;;;;;;;3.93;70.34;100689.59;5001007;27;97332;-86
2023/01/27 08:38:17;;;;;;;44.67;20.63;;;;;;;3.95;70.54;100687.81;5019322;27;97494;-83
2023/01/27 08:40:44;;;;;;;42.00;20.13;;;;;;;3.91;70.44;100693.91;5007916;27;101233;-81
2023/01/27 08:43:09;;;;;;;45.93;19.73;;;;;;;3.97;70.71;100706.03;5016422;27;100628;-81
2023/01/27 08:45:35;;;;;;;48.03;20.83;;;;;;;3.95;70.35;100694.75;5004462;27;97451;-81
2023/01/27 08:48:01;;;;;;;44.57;18.47;;;;;;;3.93;70.40;100697.38;5027709;27;97010;-82
2023/01/27 08:50:29;;;;;;;51.07;19.93;;;;;;;4.00;70.47;100711.22;4999630;27;99862;-82
2023/01/27 08:52:57;;;;;;;47.77;18.80;;;;;;;3.96;70.34;100704.31;5015314;27;100442;-81
2023/01/27 08:55:28;;;;;;;48.30;19.63;;;;;;;3.91;70.63;100701.69;5018080;27;96758;-82
2023/01/27 08:57:54;;;;;;;43.30;18.90;;;;;;;3.84;70.58;100695.66;5012119;27;97555;-81
2023/01/27 09:00:19;;;;;;;48.43;19.57;;;;;;;3.96;70.95;100701.72;4997779;27;97513;-82
2023/01/27 09:02:45;;;;;;;51.63;19.70;;;;;;;3.94;70.75;100706.88;5016681;27;98375;-82
2023/01/27 09:05:11;;;;;;;46.83;19.53;;;;;;;3.96;70.76;100705.16;4986038;27;97225;-81
2023/01/27 09:07:36;;;;;;;45.93;19.20;;;;;;;3.88;71.05;100693.91;5052061;27;98140;-82
2023/01/27 09:10:03;;;;;;;47.57;20.00;;;;;;;4.01;70.77;100719.00;4996895;27;101696;-82
2023/01/27 09:12:28;;;;;;;40.77;19.10;;;;;;;3.79;70.76;100679.19;4996127;27;100840;-82
2023/01/27 09:14:57;;;;;;;45.57;19.03;;;;;;;4.03;70.63;100724.19;5006136;27;98692;-81
2023/01/27 09:17:23;;;;;;;44.03;19.67;;;;;;;3.95;70.72;100708.63;5026667;27;96828;-81
2023/01/27 09:19:49;;;;;;;48.17;21.00;;;;;;;4.04;70.77;100725.91;5032783;27;101776;-82
2023/01/27 09:22:15;;;;;;;40.23;18.60;;;;;;;3.97;70.81;100716.41;5011800;28;100863;-82
2023/01/27 09:24:40;;;;;;;44.47;18.40;;;;;;;4.02;70.73;100728.53;4991656;27;96941;-82
2023/01/27 09:27:06;;;;;;;49.00;20.03;;;;;;;4.03;71.08;100729.41;5006086;28;97139;-82
2023/01/27 09:29:38;;;;;;;48.47;19.70;;;;;;;4.02;70.83;100735.47;5009995;27;98000;-81
2023/01/27 09:32:05;;;;;;;45.73;20.13;;;;;;;4.04;70.65;100736.31;5009151;28;100043;-81
2023/01/27 09:34:30;;;;;;;41.03;19.00;;;;;;;4.03;70.61;100743.25;4998748;27;97243;-82
2023/01/27 09:37:03;;;;;;;51.27;20.93;;;;;;;4.03;70.73;100740.66;4997374;27;96989;-83
2023/01/27 09:39:30;;;;;;;46.30;20.47;;;;;;;3.86;70.65;100714.69;4996376;27;101520;-84
2023/01/27 09:42:14;;;;;;;44.97;20.57;;;;;;;3.90;70.92;100728.56;5024976;27;101677;-84
2023/01/27 09:45:11;;;;;;;47.27;20.13;;;;;;;4.03;70.54;100745.84;5021743;27;97987;-85
2023/01/27 09:48:23;;;;;;;44.07;20.03;;;;;;;4.00;71.02;100739.78;5012952;27;97131;-79
2023/01/27 09:50:57;;;;;;;44.33;20.40;;;;;;;4.04;70.87;100749.31;4950827;28;101425;-79
2023/01/27 09:53:41;;;;;;;42.80;18.87;;;;;;;4.05;70.79;100746.72;4933939;28;98364;-79
2023/01/27 09:56:33;;;;;;;43.70;19.67;;;;;;;3.94;70.86;100735.47;4982576;27;97090;-80
2023/01/27 09:59:16;;;;;;;41.45;18.92;;;;;;;4.06;70.57;100745.84;5018226;27;97735;-80
2023/01/27 10:02:04;;;;;;;40.27;19.30;;;;;;;4.03;70.73;100743.25;5003834;27;101677;-80
2023/01/27 10:04:46;;;;;;;38.77;19.80;;;;;;;4.04;70.76;100741.50;5012371;28;101527;-81
2023/01/27 10:07:32;;;;;;;;;;;;;;;4.03;71.00;100743.25;5019180;27;97112;-80
2023/01/27 10:10:02;;;;;;;40.60;19.10;;;;;;;4.05;70.75;100740.66;4978755;27;98136;-79
2023/01/27 10:13:05;;;;;;;41.57;19.50;;;;;;;4.05;71.13;100735.47;5014208;27;98328;-82
2023/01/27 10:16:00;;;;;;;57.03;29.97;;;;;;;4.01;70.95;100738.91;5035021;27;97903;-80
2023/01/27 10:18:47;;;;;;;74.37;38.47;;;;;;;3.92;70.73;100732.00;5034763;27;97033;-80
2023/01/27 10:21:13;;;;;;;66.03;34.37;;;;;;;3.79;70.56;100710.38;5010932;27;96741;-80
2023/01/27 10:23:38;;;;;;;67.07;35.57;;;;;;;3.93;71.06;100730.28;4996096;28;97645;-80
2023/01/27 10:26:04;;;;;;;73.00;37.90;;;;;;;3.94;70.63;100738.06;4998023;28;101494;-81
2023/01/27 10:28:31;;;;;;;65.07;35.60;;;;;;;3.89;70.65;100732.00;4998854;27;97026;-81
2023/01/27 10:31:05;;;;;;;74.00;40.23;;;;;;;3.97;70.85;100739.78;4993486;28;97353;-81
2023/01/27 10:33:51;;;;;;;81.33;44.77;;;;;;;3.93;70.36;100730.28;5023144;27;97419;-79
2023/01/27 10:36:55;;;;;;;86.97;44.80;;;;;;;3.90;70.39;100738.06;4989777;28;97928;-80
2023/01/27 10:39:30;;;;;;;73.00;40.57;;;;;;;3.89;70.55;100731.13;4948923;28;97370;-83
2023/01/27 10:41:56;;;;;;;73.83;38.93;;;;;;;3.91;70.48;100738.06;5012424;28;97271;-82
2023/01/27 10:44:43;;;;;;;70.20;39.43;;;;;;;3.85;70.68;100733.72;5010905;28;98445;-81
2023/01/27 10:47:18;;;;;;;84.47;40.63;;;;;;;3.77;70.40;100735.47;4984140;28;101478;-83
2023/01/27 10:49:50;;;;;;;75.63;39.80;;;;;;;3.74;70.35;100748.44;4980938;28;97156;-81
2023/01/27 10:52:19;;;;;;;74.13;39.93;;;;;;;3.73;70.33;100743.25;5011487;28;97354;-83
2023/01/27 10:54:45;;;;;;;78.70;41.90;;;;;;;3.78;70.42;100755.38;4998337;28;100152;-83
2023/01/27 10:57:20;;;;;;;74.87;41.33;;;;;;;3.80;70.82;100742.38;4988854;28;101449;-83
2023/01/27 10:59:55;;;;;;;75.67;40.33;;;;;;;3.77;70.55;100738.06;5017179;28;96744;-83
2023/01/27 11:02:25;;;;;;;73.33;38.83;;;;;;;3.88;70.68;100738.06;5023041;28;97355;-82
2023/01/27 11:04:57;;;;;;;74.83;41.60;;;;;;;3.89;70.74;100725.94;5008961;28;97645;-83
2023/01/27 11:07:24;;;;;;;68.43;39.10;;;;;;;3.87;70.19;100733.75;5001653;28;101601;-83
2023/01/27 11:09:52;;;;;;;69.80;38.20;;;;;;;3.88;69.98;100740.66;4993167;28;97356;-82
2023/01/27 11:12:34;;;;;;;72.53;41.57;;;;;;;3.83;70.54;100738.06;4992172;28;97235;-83
2023/01/27 11:15:01;;;;;;;70.95;38.10;;;;;;;3.89;70.51;100746.72;4987467;28;101503;-83
2023/01/27 11:17:37;;;;;;;74.23;40.47;;;;;;;3.88;70.17;100748.47;5011604;28;101232;-83
2023/01/27 11:20:21;;;;;;;69.47;37.57;;;;;;;3.88;70.26;100745.00;5016675;27;96803;-83
2023/01/27 11:23:11;;;;;;;64.20;36.60;;;;;;;3.85;70.33;100732.88;5018843;27;97014;-82
2023/01/27 11:25:51;;;;;;;63.67;34.37;;;;;;;3.85;69.83;100736.34;5002006;28;101242;-82
2023/01/27 11:28:44;;;;;;;69.00;33.70;;;;;;;3.80;70.51;100737.19;5010757;27;101221;-83
2023/01/27 11:31:19;;;;;;;77.00;36.33;;;;;;;3.75;70.13;100739.81;5008590;27;96948;-82
2023/01/27 11:34:25;;;;;;;65.23;33.47;;;;;;;3.71;70.06;100738.06;5016714;27;97293;-83
2023/01/27 11:36:51;;;;;;;62.90;32.17;;;;;;;3.58;70.19;100738.94;5014705;27;97779;-83
2023/01/27 11:39:17;;;;;;;66.50;34.03;;;;;;;3.58;70.39;100736.34;5006616;27;97857;-82
2023/01/27 11:41:47;;;;;;;61.33;32.30;;;;;;;3.39;70.50;100718.13;5023205;27;97351;-81
2023/01/27 11:44:18;;;;;;;68.63;34.33;;;;;;;3.51;70.35;100740.63;5015867;27;96861;-82
2023/01/27 11:46:45;;;;;;;70.90;36.03;;;;;;;3.54;70.66;100740.63;4995551;27;101556;-82
2023/01/27 11:49:23;;;;;;;74.90;36.67;;;;;;;3.53;70.32;100727.66;5037517;27;100200;-82
2023/01/27 11:51:49;;;;;;;76.97;36.37;;;;;;;3.51;69.88;100747.56;5018589;27;97037;-83
2023/01/27 11:54:16;;;;;;;80.73;38.13;;;;;;;3.50;70.62;100741.50;5017458;27;97297;-81
2023/01/27 11:56:46;;;;;;;77.20;37.80;;;;;;;3.34;70.02;100725.00;5017757;27;101138;-81
2023/01/27 11:59:23;;;;;;;87.23;40.30;;;;;;;3.30;70.04;100714.66;5012963;27;101090;-82